Monday, October 23, 2017, 1:21 PM EDT
Back to Local

KABE, Lehigh Valley International Airport

Location: Allentown, PA, United States Lat: 40.65
Local Time: 1:21 PM EDT (17:21 GMT) Lon: -75.45
Time Zone: US/Eastern Elev: 393 ft

Show me the last for .
Show Coded

Time T Td Feel RH Dir Speed Gust Alt SLP Vis Weather Sky Remarks
2017-10-23 12:51 70 61 - 73 140° 8 - 30.19 30.19 10 BKN020 OVC060 None
2017-10-23 12:24 69 60 - 73 140° 5 - 30.21 - 10 BKN020 OVC055 None
2017-10-23 11:59 69 60 - 73 Variable 5 - 30.22 - 10 SCT018 BKN030 OVC055 None
2017-10-23 11:51 68 60 - 75 160° 6 - 30.23 30.22 10 SCT016 OVC029 None
2017-10-23 11:47 66 61 - 82 180° 7 - 30.22 - 10 SCT016 OVC029 None
2017-10-23 11:35 68 60 - 75 160° 7 - 30.23 - 10 SCT015 OVC030 None
2017-10-23 10:51 66 59 - 78 160° 7 - 30.24 30.24 10 OVC012 None
2017-10-23 10:34 66 59 - 78 150° 8 - 30.25 - 10 OVC011 None
2017-10-23 09:51 64 59 - 83 130° 7 - 30.27 30.26 10 OVC007 None
2017-10-23 08:51 62 58 - 86 30° 3 - 30.28 30.28 3 BR OVC005 None
2017-10-23 08:42 62 58 - 86 50° 3 - 30.28 - 3 BR OVC005 None
2017-10-23 07:51 62 58 - 86 100° 7 - 30.28 30.27 3 BR OVC004 None
2017-10-23 07:09 61 57 - 86 110° 3 - 30.29 - 8 OVC004 None
2017-10-23 06:51 61 57 - 86 100° 6 - 30.28 30.28 8 OVC005 None
2017-10-23 05:51 59 54 - 83 40° 6 - 30.30 30.29 10 OVC007 None
2017-10-23 05:37 59 54 - 83 50° 5 - 30.29 - 10 OVC007 None
2017-10-23 04:51 59 52 - 77 40° 6 - 30.31 30.30 10 OVC014 None
2017-10-23 04:36 60 53 - 77 90° 5 - 30.30 - 10 BKN014 BKN020 None
2017-10-23 03:51 59 52 - 77 70° 3 - 30.31 30.31 10 SCT013 OVC023 None
2017-10-23 03:37 59 52 - 77 60° 5 - 30.31 - 10 SCT013 OVC021 None
2017-10-23 03:30 60 53 - 77 50° 5 - 30.31 - 10 BKN013 OVC021 None
2017-10-23 03:21 61 52 - 72 - Calm - 30.32 - 10 BKN015 OVC021 None
2017-10-23 02:51 59 51 - 74 30° 3 - 30.33 30.32 10 BKN013 OVC018 None
2017-10-23 01:51 58 50 - 74 50° 5 - 30.33 30.32 10 OVC017 6-hr Min Temp (2am): 55.9°F
6-hr Max Temp (2am): 66.0°F
2017-10-23 00:51 61 50 - 67 60° 5 - 30.34 30.33 10 OVC016 24-hr Min Temp (1am): 42.1°F
24-hr Max Temp (1am): 75.9°F
2017-10-23 00:03 61 49 - 64 130° 5 - 30.35 - 10 BKN011 None
2017-10-22 23:51 61 48 - 62 160° 7 - 30.36 30.35 10 FEW011 None
2017-10-22 22:51 62 45 - 53 130° 6 - 30.36 30.35 10 CLR None
2017-10-22 21:51 59 46 - 62 - Calm - 30.36 30.36 10 CLR None
2017-10-22 20:51 64 47 - 53 - Calm - 30.34 30.34 10 CLR None
2017-10-22 19:51 65 45 - 48 110° 5 - 30.34 30.34 10 CLR 6-hr Min Temp (8pm): 61.0°F
6-hr Max Temp (8pm): 75.9°F
2017-10-22 18:51 69 43 - 38 120° 3 - 30.33 30.33 10 CLR None
2017-10-22 17:51 70 43 - 37 160° 7 - 30.33 30.33 10 CLR None
2017-10-22 16:51 75 45 - 34 150° 10 - 30.33 30.33 10 CLR None
2017-10-22 15:51 76 45 - 33 170° 9 - 30.34 30.34 10 CLR None
2017-10-22 14:51 76 42 - 29 200° 10 - 30.34 30.34 10 CLR None
2017-10-22 13:51 75 43 - 31 190° 6 - 30.36 30.36 10 CLR 6-hr Min Temp (2pm): 45.0°F
6-hr Max Temp (2pm): 75.9°F

Support USWX by starting your Amazon purchase here.